Time,TemperatureF,DewpointF,PressureIn,WindDirection,WindDirectionDegrees,WindSpeedMPH,WindSpeedGustMPH,Humidity,HourlyPrecipIn,Conditions,Clouds,dailyrainin,SolarRadiationWatts/m^2,SoftwareType,DateUTC
2013-09-08 00:03:00,67.0,64.0,-100.00,South,187,1.0,1.0,90,0.00,,,0.00,0.000000,,2013-09-08 05:03:00,
2013-09-08 00:43:00,66.0,64.0,-100.00,SSW,199,0.0,0.0,92,0.00,,,0.00,0.000000,,2013-09-08 05:43:00,
2013-09-08 00:52:00,66.0,64.0,-100.00,SSW,199,0.0,0.0,92,0.00,,,0.00,0.000000,,2013-09-08 05:52:00,
2013-09-08 01:03:00,66.0,64.0,-100.00,SSW,199,0.0,0.0,92,0.00,,,0.00,0.000000,,2013-09-08 06:03:00,
2013-09-08 01:42:00,68.0,64.0,-100.00,South,172,1.0,3.0,88,0.00,,,0.00,0.000000,,2013-09-08 06:42:00,
2013-09-08 01:53:00,68.0,64.0,-100.00,South,172,1.0,3.0,88,0.00,,,0.00,0.000000,,2013-09-08 06:53:00,
2013-09-08 02:01:00,68.0,64.0,-100.00,South,172,1.0,3.0,88,0.00,,,0.00,0.000000,,2013-09-08 07:01:00,
2013-09-08 02:42:00,70.0,66.0,-100.00,NNE,27,6.0,7.0,86,0.00,,,0.00,0.000000,,2013-09-08 07:42:00,
2013-09-08 02:52:00,70.0,66.0,-100.00,NNE,27,6.0,7.0,86,0.00,,,0.00,0.000000,,2013-09-08 07:52:00,
2013-09-08 03:02:00,70.0,66.0,-100.00,NNE,27,6.0,7.0,86,0.00,,,0.00,0.000000,,2013-09-08 08:02:00,
2013-09-08 03:42:00,73.0,65.0,-100.00,NE,38,3.0,5.0,76,0.00,,,0.00,0.000000,,2013-09-08 08:42:00,
2013-09-08 03:52:00,73.0,65.0,-100.00,NE,38,3.0,5.0,76,0.00,,,0.00,0.000000,,2013-09-08 08:52:00,
2013-09-08 04:02:00,73.0,65.0,-100.00,NE,38,3.0,5.0,76,0.00,,,0.00,0.000000,,2013-09-08 09:02:00,
2013-09-08 04:43:00,72.0,64.0,-100.00,NE,55,4.0,8.0,76,0.00,,,0.00,0.000000,,2013-09-08 09:43:00,
2013-09-08 04:54:00,72.0,64.0,-100.00,NE,55,4.0,8.0,76,0.00,,,0.00,0.000000,,2013-09-08 09:54:00,
2013-09-08 05:03:00,72.0,64.0,-100.00,NE,55,4.0,8.0,76,0.00,,,0.00,0.000000,,2013-09-08 10:03:00,
2013-09-08 05:43:00,71.0,65.0,-100.00,NE,46,5.0,8.0,81,0.00,,,0.00,0.000000,,2013-09-08 10:43:00,
2013-09-08 05:53:00,71.0,65.0,-100.00,NE,46,5.0,8.0,81,0.00,,,0.00,0.000000,,2013-09-08 10:53:00,
2013-09-08 06:02:00,71.0,65.0,-100.00,NE,46,5.0,8.0,81,0.00,,,0.00,0.000000,,2013-09-08 11:02:00,
2013-09-08 06:42:00,71.0,66.0,-100.00,NE,49,6.0,15.0,85,0.00,,,0.00,0.000000,,2013-09-08 11:42:00,
2013-09-08 06:52:00,71.0,66.0,-100.00,NE,49,6.0,15.0,85,0.00,,,0.00,0.000000,,2013-09-08 11:52:00,
2013-09-08 07:02:00,71.0,66.0,-100.00,NE,49,6.0,15.0,85,0.00,,,0.00,0.000000,,2013-09-08 12:02:00,
2013-09-08 07:42:00,71.0,66.0,-100.00,NE,49,5.0,10.0,85,0.00,,,0.00,16.000000,,2013-09-08 12:42:00,
2013-09-08 07:52:00,71.0,66.0,-100.00,NE,49,5.0,10.0,85,0.00,,,0.00,16.000000,,2013-09-08 12:52:00,
2013-09-08 08:02:00,71.0,66.0,-100.00,NE,49,5.0,10.0,85,0.00,,,0.00,16.000000,,2013-09-08 13:02:00,
2013-09-08 08:42:00,72.0,67.0,-100.00,ENE,68,5.0,8.0,83,0.00,,,0.00,68.000000,,2013-09-08 13:42:00,
2013-09-08 08:52:00,72.0,67.0,-100.00,ENE,68,5.0,8.0,83,0.00,,,0.00,68.000000,,2013-09-08 13:52:00,
2013-09-08 09:02:00,72.0,67.0,-100.00,ENE,68,5.0,8.0,83,0.00,,,0.00,68.000000,,2013-09-08 14:02:00,
2013-09-08 09:42:00,74.0,67.0,-100.00,ENE,76,6.0,11.0,80,0.00,,,0.00,144.000000,,2013-09-08 14:42:00,
2013-09-08 09:52:00,74.0,67.0,-100.00,ENE,76,6.0,11.0,80,0.00,,,0.00,144.000000,,2013-09-08 14:52:00,
2013-09-08 10:02:00,74.0,67.0,-100.00,ENE,76,6.0,11.0,80,0.00,,,0.00,144.000000,,2013-09-08 15:02:00,
2013-09-08 10:45:00,79.0,67.0,-100.00,East,87,7.0,11.0,66,0.00,,,0.00,444.000000,,2013-09-08 15:45:00,
2013-09-08 10:55:00,79.0,67.0,-100.00,East,87,7.0,11.0,66,0.00,,,0.00,444.000000,,2013-09-08 15:55:00,
2013-09-08 11:04:00,79.0,67.0,-100.00,East,87,7.0,11.0,66,0.00,,,0.00,444.000000,,2013-09-08 16:04:00,
2013-09-08 11:44:00,81.0,66.0,-100.00,East,88,7.0,9.0,60,0.00,,,0.00,624.000000,,2013-09-08 16:44:00,
2013-09-08 11:53:00,81.0,66.0,-100.00,East,88,7.0,9.0,60,0.00,,,0.00,624.000000,,2013-09-08 16:53:00,
2013-09-08 12:03:00,81.0,66.0,-100.00,East,88,7.0,9.0,60,0.00,,,0.00,624.000000,,2013-09-08 17:03:00,
2013-09-08 12:43:00,84.0,65.0,-100.00,ESE,107,7.0,10.0,53,0.00,,,0.00,662.000000,,2013-09-08 17:43:00,
2013-09-08 12:53:00,84.0,65.0,-100.00,ESE,107,7.0,10.0,53,0.00,,,0.00,662.000000,,2013-09-08 17:53:00,
2013-09-08 13:02:00,84.0,65.0,-100.00,ESE,107,7.0,10.0,53,0.00,,,0.00,662.000000,,2013-09-08 18:02:00,
2013-09-08 13:42:00,82.0,64.0,-100.00,East,84,5.0,6.0,54,0.00,,,0.00,354.000000,,2013-09-08 18:42:00,
2013-09-08 13:52:00,82.0,64.0,-100.00,East,84,5.0,6.0,54,0.00,,,0.00,354.000000,,2013-09-08 18:52:00,
2013-09-08 14:01:00,82.0,64.0,-100.00,East,84,5.0,6.0,54,0.00,,,0.00,354.000000,,2013-09-08 19:01:00,
2013-09-08 14:42:00,84.0,64.0,-100.00,ENE,73,5.0,7.0,51,0.00,,,0.00,377.000000,,2013-09-08 19:42:00,
2013-09-08 14:52:00,84.0,64.0,-100.00,ENE,73,5.0,7.0,51,0.00,,,0.00,377.000000,,2013-09-08 19:52:00,
2013-09-08 15:03:00,84.0,64.0,-100.00,ENE,73,5.0,7.0,51,0.00,,,0.00,377.000000,,2013-09-08 20:03:00,
2013-09-08 15:42:00,83.0,66.0,-100.00,ENE,61,6.0,8.0,56,0.00,,,0.00,299.000000,,2013-09-08 20:42:00,
2013-09-08 15:53:00,83.0,66.0,-100.00,ENE,61,6.0,8.0,56,0.00,,,0.00,299.000000,,2013-09-08 20:53:00,
2013-09-08 16:02:00,83.0,66.0,-100.00,ENE,61,6.0,8.0,56,0.00,,,0.00,299.000000,,2013-09-08 21:02:00,
2013-09-08 16:44:00,85.0,65.0,-100.00,ENE,69,6.0,11.0,52,0.00,,,0.00,426.000000,,2013-09-08 21:44:00,
2013-09-08 16:54:00,85.0,65.0,-100.00,ENE,69,6.0,11.0,52,0.00,,,0.00,426.000000,,2013-09-08 21:54:00,
2013-09-08 17:04:00,85.0,65.0,-100.00,ENE,69,6.0,11.0,52,0.00,,,0.00,426.000000,,2013-09-08 22:04:00,
2013-09-08 17:44:00,83.0,67.0,-100.00,ENE,65,6.0,10.0,58,0.00,,,-99.99,355.000000,,2013-09-08 22:44:00,
2013-09-08 17:53:00,83.0,67.0,-100.00,ENE,65,6.0,10.0,58,0.00,,,-99.99,355.000000,,2013-09-08 22:53:00,
2013-09-08 18:04:00,83.0,67.0,-100.00,ENE,65,6.0,10.0,58,0.00,,,-99.99,355.000000,,2013-09-08 23:04:00,
2013-09-08 18:42:00,82.0,66.0,-100.00,East,79,6.0,8.0,59,0.00,,,0.00,208.000000,,2013-09-08 23:42:00,
2013-09-08 18:52:00,82.0,66.0,-100.00,East,79,6.0,8.0,59,0.00,,,0.00,208.000000,,2013-09-08 23:52:00,
2013-09-08 19:02:00,82.0,66.0,-100.00,East,79,6.0,8.0,59,0.00,,,0.00,208.000000,,2013-09-09 00:02:00,
2013-09-08 19:42:00,78.0,66.0,-100.00,East,79,5.0,6.0,67,0.00,,,0.00,73.000000,,2013-09-09 00:42:00,
2013-09-08 19:52:00,78.0,66.0,-100.00,East,79,5.0,6.0,67,0.00,,,0.00,73.000000,,2013-09-09 00:52:00,
2013-09-08 20:01:00,78.0,66.0,-100.00,East,79,5.0,6.0,67,0.00,,,0.00,73.000000,,2013-09-09 01:01:00,
2013-09-08 20:42:00,75.0,66.0,-100.00,ESE,109,6.0,9.0,74,0.00,,,0.00,2.000000,,2013-09-09 01:42:00,
2013-09-08 20:52:00,75.0,66.0,-100.00,ESE,109,6.0,9.0,74,0.00,,,0.00,2.000000,,2013-09-09 01:52:00,
2013-09-08 21:02:00,75.0,66.0,-100.00,ESE,109,6.0,9.0,74,0.00,,,0.00,2.000000,,2013-09-09 02:02:00,
2013-09-08 21:42:00,72.0,65.0,-100.00,ESE,116,7.0,10.0,79,0.00,,,0.00,0.000000,,2013-09-09 02:42:00,
2013-09-08 21:53:00,72.0,65.0,-100.00,ESE,116,7.0,10.0,79,0.00,,,0.00,0.000000,,2013-09-09 02:53:00,
2013-09-08 22:02:00,72.0,65.0,-100.00,ESE,116,7.0,10.0,79,0.00,,,0.00,0.000000,,2013-09-09 03:02:00,
2013-09-08 22:44:00,71.0,66.0,-100.00,ESE,119,5.0,9.0,85,0.00,,,0.00,0.000000,,2013-09-09 03:44:00,
2013-09-08 22:55:00,71.0,66.0,-100.00,ESE,119,5.0,9.0,85,0.00,,,0.00,0.000000,,2013-09-09 03:55:00,
2013-09-08 23:03:00,71.0,66.0,-100.00,ESE,119,5.0,9.0,85,0.00,,,0.00,0.000000,,2013-09-09 04:03:00,
2013-09-08 23:43:00,69.0,66.0,-100.00,SE,125,4.0,5.0,89,0.00,,,0.00,0.000000,,2013-09-09 04:43:00,
2013-09-08 23:54:00,69.0,66.0,-100.00,SE,125,4.0,5.0,89,0.00,,,0.00,0.000000,,2013-09-09 04:54:00,